Time;durP1;ratioP1;P1;durP2;ratioP2;P2;SDS_P1;SDS_P2;PMS_P1;PMS_P2;Temp;Humidity;BMP_temperature;BMP_pressure;BME280_temperature;BME280_humidity;BME280_pressure;Samples;Min_cycle;Max_cycle;Signal;HPM_P1;HPM_P2
2022/11/07 00:01:26;;;;;;;12.70;8.57;;;9.20;76.90;;;;;;5059706;28;20029;-57
2022/11/07 00:03:55;;;;;;;11.35;8.10;;;9.20;76.80;;;;;;5058827;28;20216;-57
2022/11/07 00:06:21;;;;;;;13.63;8.88;;;9.20;77.00;;;;;;5036195;28;20033;-57
2022/11/07 00:08:48;;;;;;;11.32;7.78;;;9.20;77.10;;;;;;5039152;28;20461;-57
2022/11/07 00:11:14;;;;;;;11.35;8.02;;;9.20;77.10;;;;;;5059069;28;20032;-58
2022/11/07 00:13:39;;;;;;;12.77;8.88;;;9.20;76.90;;;;;;5037511;28;20385;-57
2022/11/07 00:16:09;;;;;;;11.75;8.15;;;9.30;77.10;;;;;;5038254;28;20385;-57
2022/11/07 00:18:35;;;;;;;13.38;8.48;;;9.30;77.10;;;;;;5038858;28;20534;-57
2022/11/07 00:21:08;;;;;;;13.05;8.32;;;9.30;77.10;;;;;;5044046;28;20022;-58
2022/11/07 00:23:39;;;;;;;12.00;8.38;;;9.30;76.90;;;;;;5051086;28;20067;-57
2022/11/07 00:26:08;;;;;;;11.82;8.38;;;9.30;76.70;;;;;;5048285;28;20017;-58
2022/11/07 00:28:35;;;;;;;10.70;7.68;;;9.30;77.30;;;;;;5045027;28;20041;-57
2022/11/07 00:31:00;;;;;;;10.80;8.13;;;9.30;76.50;;;;;;5053704;28;20381;-57
2022/11/07 00:33:26;;;;;;;9.27;7.00;;;9.30;76.50;;;;;;5032755;28;20093;-57
2022/11/07 00:35:52;;;;;;;10.60;7.28;;;9.30;76.50;;;;;;5039255;28;20041;-57
2022/11/07 00:38:17;;;;;;;11.35;7.68;;;9.30;76.60;;;;;;5052936;28;20057;-57
2022/11/07 00:40:52;;;;;;;12.68;8.30;;;9.30;76.60;;;;;;5043183;28;20453;-56
2022/11/07 00:43:17;;;;;;;10.90;7.85;;;9.30;76.50;;;;;;5049270;28;20029;-56
2022/11/07 00:45:43;;;;;;;11.23;7.78;;;9.30;76.40;;;;;;5048464;28;20394;-56
2022/11/07 00:48:08;;;;;;;10.02;7.28;;;9.40;76.50;;;;;;5036367;28;20374;-57
2022/11/07 00:50:34;;;;;;;9.30;6.68;;;9.40;76.30;;;;;;5039110;28;20103;-56
2022/11/07 00:53:00;;;;;;;11.30;7.28;;;9.40;76.30;;;;;;5044025;28;20463;-56
2022/11/07 00:55:25;;;;;;;10.98;7.47;;;9.40;76.20;;;;;;5047991;28;20025;-57
2022/11/07 00:57:51;;;;;;;10.15;7.15;;;9.40;76.10;;;;;;5036927;28;20389;-57
2022/11/07 01:00:16;;;;;;;10.10;6.75;;;9.30;75.90;;;;;;5036838;28;20034;-57
2022/11/07 01:02:42;;;;;;;9.55;6.80;;;9.30;76.00;;;;;;5038044;28;20358;-57
2022/11/07 01:05:11;;;;;;;9.75;6.88;;;9.30;76.00;;;;;;5038802;28;20037;-58
2022/11/07 01:07:38;;;;;;;8.85;6.15;;;9.30;75.80;;;;;;5043545;28;20090;-57
2022/11/07 01:10:05;;;;;;;9.57;6.63;;;9.30;75.70;;;;;;5042485;28;20470;-57
2022/11/07 01:12:34;;;;;;;8.70;6.47;;;9.30;75.70;;;;;;5035079;28;20483;-57
2022/11/07 01:15:01;;;;;;;9.20;6.90;;;9.20;75.50;;;;;;5037959;28;20045;-57
2022/11/07 01:17:27;;;;;;;8.90;6.22;;;9.20;75.60;;;;;;5035900;28;20116;-57
2022/11/07 01:19:53;;;;;;;7.55;5.68;;;9.20;75.60;;;;;;5036561;28;20061;-57
2022/11/07 01:22:18;;;;;;;7.55;5.53;;;9.20;75.70;;;;;;5037087;28;20029;-58
2022/11/07 01:24:44;;;;;;;8.73;5.30;;;9.20;75.60;;;;;;5039590;28;20060;-57
2022/11/07 01:27:09;;;;;;;8.43;6.07;;;9.20;75.80;;;;;;5039957;28;20031;-57
2022/11/07 01:29:36;;;;;;;7.63;5.32;;;9.20;75.70;;;;;;5046194;28;20043;-58
2022/11/07 01:32:01;;;;;;;7.55;6.00;;;9.20;75.70;;;;;;5044434;28;20079;-57
2022/11/07 01:34:27;;;;;;;8.57;5.95;;;9.20;75.50;;;;;;5037673;28;20029;-56
2022/11/07 01:36:53;;;;;;;8.02;5.90;;;9.20;75.30;;;;;;5038549;28;20065;-57
2022/11/07 01:39:18;;;;;;;8.98;5.72;;;9.20;75.20;;;;;;5046654;28;20091;-57
2022/11/07 01:41:44;;;;;;;9.05;6.97;;;9.20;75.20;;;;;;5052859;28;20037;-58
2022/11/07 01:44:09;;;;;;;9.82;6.13;;;9.30;75.30;;;;;;5041591;28;20032;-56
2022/11/07 01:46:43;;;;;;;7.95;5.63;;;9.30;75.20;;;;;;5042480;28;20033;-57
2022/11/07 01:49:16;;;;;;;7.90;5.53;;;9.30;75.00;;;;;;5052051;28;20048;-58
2022/11/07 01:51:46;;;;;;;7.95;6.07;;;9.30;74.90;;;;;;5044860;28;20444;-57
2022/11/07 01:54:13;;;;;;;8.40;6.35;;;9.30;75.00;;;;;;5048165;28;20112;-57
2022/11/07 01:56:41;;;;;;;7.07;5.28;;;9.30;74.70;;;;;;5038459;28;20025;-58
2022/11/07 01:59:10;;;;;;;8.60;5.43;;;9.30;74.70;;;;;;5039655;28;20021;-58
2022/11/07 02:01:35;;;;;;;8.07;5.97;;;9.30;74.60;;;;;;5054143;28;20056;-55
2022/11/07 02:04:02;;;;;;;7.75;6.30;;;9.30;74.50;;;;;;5052008;28;20033;-57
2022/11/07 02:06:53;;;;;;;7.18;5.60;;;9.30;74.40;;;;;;5040316;28;20032;-57
2022/11/07 02:09:18;;;;;;;8.48;5.68;;;9.30;74.10;;;;;;5055767;28;20024;-58
2022/11/07 02:11:44;;;;;;;8.63;6.55;;;9.30;73.80;;;;;;5038263;28;20026;-56
2022/11/07 02:14:15;;;;;;;8.35;6.20;;;9.20;73.70;;;;;;5035306;28;20509;-57
2022/11/07 02:16:41;;;;;;;8.60;6.57;;;9.20;73.80;;;;;;5037720;28;20032;-57
2022/11/07 02:19:16;;;;;;;8.32;6.38;;;9.10;73.70;;;;;;5037213;28;20076;-55
2022/11/07 02:21:55;;;;;;;7.28;5.22;;;9.10;74.00;;;;;;5037247;28;20040;-57
2022/11/07 02:24:28;;;;;;;7.70;5.47;;;9.10;74.10;;;;;;5037962;28;20508;-57
2022/11/07 02:26:55;;;;;;;10.20;6.57;;;9.10;74.00;;;;;;5040843;28;20028;-57
2022/11/07 02:29:22;;;;;;;7.65;5.50;;;9.20;74.00;;;;;;5042289;28;20025;-57
2022/11/07 02:31:47;;;;;;;9.38;6.13;;;9.20;73.90;;;;;;5042316;28;20484;-57
2022/11/07 02:34:13;;;;;;;9.27;6.18;;;9.20;74.30;;;;;;5040344;28;20044;-58
2022/11/07 02:36:39;;;;;;;9.50;6.43;;;9.20;73.80;;;;;;5039433;28;20088;-57
2022/11/07 02:39:05;;;;;;;7.47;5.63;;;9.20;73.70;;;;;;5041569;28;20082;-57
2022/11/07 02:41:33;;;;;;;8.35;6.22;;;9.10;73.70;;;;;;5040389;28;20029;-57
2022/11/07 02:44:08;;;;;;;8.00;6.10;;;9.20;73.80;;;;;;5040509;28;20324;-58
2022/11/07 02:46:34;;;;;;;9.32;6.60;;;9.20;73.60;;;;;;5038802;28;20032;-58
2022/11/07 02:49:01;;;;;;;9.73;6.75;;;9.20;73.30;;;;;;5038916;28;20067;-58
2022/11/07 02:51:26;;;;;;;8.98;6.95;;;9.10;73.10;;;;;;5041154;28;20073;-57
2022/11/07 02:53:52;;;;;;;9.63;6.50;;;9.10;73.20;;;;;;5039496;28;20033;-57
2022/11/07 02:56:18;;;;;;;7.55;5.72;;;9.10;73.20;;;;;;5039555;28;20144;-57
2022/11/07 02:58:44;;;;;;;8.48;6.07;;;9.10;73.40;;;;;;5041778;28;20100;-55
2022/11/07 03:01:11;;;;;;;7.63;5.55;;;9.10;73.30;;;;;;5053537;28;20425;-57
2022/11/07 03:03:45;;;;;;;10.02;6.53;;;9.10;73.30;;;;;;5046905;28;20021;-57
2022/11/07 03:06:14;;;;;;;9.30;5.88;;;9.10;73.40;;;;;;5044845;28;20086;-58
2022/11/07 03:08:39;;;;;;;8.35;6.03;;;9.10;73.30;;;;;;5056163;28;20029;-57
2022/11/07 03:11:05;;;;;;;9.48;6.47;;;9.20;73.20;;;;;;5048518;28;20025;-57
2022/11/07 03:13:31;;;;;;;10.23;7.15;;;9.10;72.90;;;;;;5048224;28;20077;-57
2022/11/07 03:15:58;;;;;;;10.77;5.72;;;9.10;73.00;;;;;;5039444;28;20120;-56
2022/11/07 03:18:23;;;;;;;9.05;6.38;;;9.10;73.10;;;;;;5046006;28;20104;-56
2022/11/07 03:20:49;;;;;;;9.35;6.30;;;9.10;73.00;;;;;;5043621;28;20052;-57
2022/11/07 03:23:15;;;;;;;9.27;6.28;;;9.20;73.00;;;;;;5058948;28;20094;-57
2022/11/07 03:25:41;;;;;;;8.93;6.32;;;9.20;73.00;;;;;;5057714;28;20056;-58
2022/11/07 03:28:06;;;;;;;8.68;6.20;;;9.20;72.80;;;;;;5054207;28;20048;-57
2022/11/07 03:30:32;;;;;;;9.30;6.43;;;9.20;72.70;;;;;;5042194;28;20523;-57
2022/11/07 03:32:58;;;;;;;8.43;6.18;;;9.20;72.70;;;;;;5051680;28;20064;-57
2022/11/07 03:35:24;;;;;;;8.55;5.93;;;9.20;72.70;;;;;;5053980;28;20435;-57
2022/11/07 03:37:50;;;;;;;9.15;6.75;;;9.20;72.70;;;;;;5043197;28;20388;-57
2022/11/07 03:40:16;;;;;;;9.82;7.25;;;9.20;72.70;;;;;;5056942;28;20029;-56
2022/11/07 03:42:43;;;;;;;10.35;6.43;;;9.20;72.60;;;;;;5056719;28;20036;-58
2022/11/07 03:45:11;;;;;;;9.75;6.35;;;9.10;72.30;;;;;;5058635;28;20025;-58
2022/11/07 03:47:38;;;;;;;9.40;6.75;;;9.10;72.30;;;;;;5053797;28;20032;-57
2022/11/07 03:50:06;;;;;;;11.07;7.35;;;9.10;72.40;;;;;;5042484;28;20037;-57
2022/11/07 03:52:31;;;;;;;9.10;6.25;;;9.10;72.30;;;;;;5051402;28;20515;-57
2022/11/07 03:54:57;;;;;;;9.52;6.90;;;9.10;72.30;;;;;;5054841;28;20056;-57
2022/11/07 03:57:22;;;;;;;8.30;6.57;;;9.10;72.30;;;;;;5040116;28;20037;-58
2022/11/07 03:59:48;;;;;;;11.73;7.65;;;9.00;72.20;;;;;;5041650;28;20083;-57
2022/11/07 04:02:14;;;;;;;8.63;6.68;;;9.00;72.20;;;;;;5039845;28;20060;-57
2022/11/07 04:04:40;;;;;;;10.20;6.65;;;8.90;72.10;;;;;;5040532;28;20651;-57
2022/11/07 04:07:05;;;;;;;9.60;7.07;;;8.90;72.10;;;;;;5031035;28;20026;-57
2022/11/07 04:09:31;;;;;;;9.95;6.82;;;8.90;72.10;;;;;;5036595;28;20031;-58
2022/11/07 04:17:26;;;;;;;9.85;6.80;;;8.80;72.10;;;;;;5039497;28;20055;-57
2022/11/07 04:19:54;;;;;;;8.20;6.10;;;8.80;72.30;;;;;;5040836;28;20117;-57
2022/11/07 04:22:24;;;;;;;8.43;6.25;;;8.80;72.20;;;;;;5039319;28;20040;-56
2022/11/07 04:24:50;;;;;;;9.40;6.25;;;8.80;72.20;;;;;;5039923;28;20108;-56
2022/11/07 04:30:17;;;;;;;8.80;5.97;;;8.70;72.20;;;;;;5041218;28;20036;-57
2022/11/07 04:32:44;;;;;;;9.32;6.45;;;8.70;72.20;;;;;;5038930;28;20026;-57
2022/11/07 04:35:10;;;;;;;9.85;6.88;;;8.70;72.30;;;;;;5040405;28;20036;-58
2022/11/07 04:37:36;;;;;;;10.38;7.28;;;8.70;72.40;;;;;;5033504;28;20022;-57
2022/11/07 04:40:02;;;;;;;9.93;6.68;;;8.70;72.40;;;;;;5040066;28;20030;-57
2022/11/07 04:42:27;;;;;;;8.65;6.38;;;8.60;72.40;;;;;;5040814;28;20163;-57
2022/11/07 04:44:53;;;;;;;10.50;7.07;;;8.60;72.40;;;;;;5039365;28;20168;-57
2022/11/07 04:47:18;;;;;;;9.70;6.60;;;8.60;72.40;;;;;;5038006;28;20389;-58
2022/11/07 04:49:44;;;;;;;10.70;6.95;;;8.60;72.30;;;;;;5039155;28;20026;-57
2022/11/07 04:52:11;;;;;;;8.55;6.68;;;8.60;72.30;;;;;;5038106;28;20041;-57
2022/11/07 04:54:37;;;;;;;9.77;6.25;;;8.60;72.40;;;;;;5070148;28;20380;-58
2022/11/07 04:57:02;;;;;;;9.27;6.95;;;8.60;72.50;;;;;;5041819;28;20123;-58
2022/11/07 04:59:28;;;;;;;9.43;7.03;;;8.50;72.40;;;;;;5051954;28;20043;-57
2022/11/07 05:01:54;;;;;;;9.02;6.55;;;8.50;72.50;;;;;;5038509;28;20520;-56
2022/11/07 05:04:19;;;;;;;8.90;6.75;;;8.50;72.50;;;;;;5039002;28;20099;-57
2022/11/07 05:06:45;;;;;;;11.10;7.20;;;8.50;72.50;;;;;;5035145;28;20063;-58
2022/11/07 05:09:16;;;;;;;8.90;6.22;;;8.50;72.50;;;;;;5048167;28;20041;-56
2022/11/07 05:11:46;;;;;;;9.55;6.32;;;8.50;72.50;;;;;;5026045;28;20036;-56
2022/11/07 05:14:12;;;;;;;9.30;6.45;;;8.50;72.50;;;;;;5040693;28;20088;-58
2022/11/07 05:16:38;;;;;;;10.00;6.53;;;8.50;72.70;;;;;;5040397;28;20033;-56
2022/11/07 05:19:04;;;;;;;8.95;6.53;;;8.50;72.50;;;;;;5041112;28;20037;-57
2022/11/07 05:21:29;;;;;;;10.25;6.70;;;8.60;72.50;;;;;;5057701;28;20043;-57
2022/11/07 05:23:55;;;;;;;11.02;7.43;;;8.60;72.30;;;;;;5044598;28;20037;-56
2022/11/07 05:26:21;;;;;;;8.85;6.60;;;8.60;72.30;;;;;;5046831;28;20456;-58
2022/11/07 05:28:46;;;;;;;10.40;7.78;;;8.60;72.40;;;;;;5039451;28;20401;-58
2022/11/07 05:31:16;;;;;;;9.48;6.88;;;8.60;72.40;;;;;;5057120;28;20174;-57
2022/11/07 05:33:43;;;;;;;9.02;6.78;;;8.60;72.30;;;;;;5046113;28;20029;-58
2022/11/07 05:36:17;;;;;;;9.88;7.38;;;8.50;72.40;;;;;;5048187;28;20049;-57
2022/11/07 05:38:45;;;;;;;9.48;6.65;;;8.60;72.40;;;;;;5043075;28;20056;-57
2022/11/07 05:41:12;;;;;;;8.98;6.75;;;8.60;72.50;;;;;;5048921;28;20024;-57
2022/11/07 05:43:38;;;;;;;8.70;6.28;;;8.70;72.40;;;;;;5045794;28;20037;-58
2022/11/07 05:46:04;;;;;;;8.77;6.88;;;8.70;72.30;;;;;;5051787;28;20046;-56
2022/11/07 05:48:30;;;;;;;8.65;6.20;;;8.70;72.20;;;;;;5044109;28;20477;-59
2022/11/07 05:50:59;;;;;;;9.10;6.32;;;8.80;72.30;;;;;;5037772;28;20312;-58
2022/11/07 05:53:26;;;;;;;8.20;6.45;;;8.80;72.10;;;;;;5036860;28;20439;-56
2022/11/07 05:55:52;;;;;;;10.50;6.45;;;8.80;71.90;;;;;;5036728;28;20519;-56
2022/11/07 05:58:19;;;;;;;8.85;6.15;;;8.90;72.00;;;;;;5037229;28;20021;-56
2022/11/07 06:00:45;;;;;;;9.27;6.50;;;8.90;72.10;;;;;;5040043;28;20025;-56
2022/11/07 06:03:11;;;;;;;10.60;7.57;;;8.90;72.10;;;;;;5039528;28;20024;-57
2022/11/07 06:05:38;;;;;;;9.50;6.93;;;9.00;72.00;;;;;;5044009;28;20104;-57
2022/11/07 06:08:04;;;;;;;11.00;7.20;;;9.00;71.80;;;;;;5042428;28;20017;-57
2022/11/07 06:10:30;;;;;;;8.98;5.97;;;9.10;71.90;;;;;;5046500;28;20548;-57
2022/11/07 06:13:01;;;;;;;8.98;5.97;;;9.20;71.90;;;;;;5050998;28;20017;-57
2022/11/07 06:15:28;;;;;;;8.88;6.43;;;9.30;72.00;;;;;;5036070;28;20060;-56
2022/11/07 06:17:54;;;;;;;10.18;6.95;;;9.40;71.80;;;;;;5039566;28;20104;-57
2022/11/07 06:20:20;;;;;;;11.70;7.05;;;9.50;71.80;;;;;;5036549;28;20381;-57
2022/11/07 06:22:46;;;;;;;8.20;6.57;;;9.60;71.60;;;;;;5052615;28;20033;-58
2022/11/07 06:25:12;;;;;;;10.05;7.05;;;9.70;71.40;;;;;;5045721;28;20085;-58
2022/11/07 06:27:37;;;;;;;8.50;6.07;;;9.80;71.10;;;;;;5049427;28;20543;-57
2022/11/07 06:30:04;;;;;;;9.10;6.55;;;9.90;70.90;;;;;;5044110;28;20051;-57
2022/11/07 06:32:29;;;;;;;9.25;6.55;;;10.00;70.80;;;;;;5035567;28;20052;-58
2022/11/07 06:34:55;;;;;;;9.38;6.70;;;10.00;70.60;;;;;;5033900;28;20063;-57
2022/11/07 06:37:20;;;;;;;8.90;6.57;;;10.00;70.40;;;;;;5048607;28;20021;-57
2022/11/07 06:39:46;;;;;;;9.43;6.63;;;10.00;70.30;;;;;;5040056;28;20056;-58
2022/11/07 06:42:12;;;;;;;9.35;6.38;;;10.10;70.30;;;;;;5049753;28;20033;-58
2022/11/07 06:44:37;;;;;;;11.25;7.10;;;10.10;70.10;;;;;;5032955;28;20033;-58
2022/11/07 06:47:03;;;;;;;11.15;6.82;;;10.10;69.80;;;;;;5036896;28;20987;-57
2022/11/07 06:49:28;;;;;;;11.30;7.85;;;10.10;69.80;;;;;;5033002;28;20022;-57
2022/11/07 06:51:54;;;;;;;12.40;7.57;;;10.10;69.70;;;;;;5037914;28;20025;-57
2022/11/07 06:54:20;;;;;;;11.48;7.13;;;10.00;69.40;;;;;;5043162;28;20032;-57
2022/11/07 06:56:45;;;;;;;10.45;7.03;;;10.00;70.10;;;;;;5035683;28;20029;-58
2022/11/07 06:59:11;;;;;;;11.70;7.78;;;10.00;69.40;;;;;;5035789;28;20410;-58
2022/11/07 07:01:36;;;;;;;16.67;9.88;;;10.00;69.60;;;;;;5036719;28;20021;-58
2022/11/07 07:04:04;;;;;;;13.52;9.65;;;9.90;69.60;;;;;;5037667;28;20040;-57
2022/11/07 07:06:29;;;;;;;12.13;8.55;;;9.90;69.30;;;;;;5032414;28;20065;-55
2022/11/07 07:08:56;;;;;;;14.15;8.30;;;9.80;69.40;;;;;;5036113;28;20428;-57
2022/11/07 07:11:22;;;;;;;15.10;9.20;;;9.80;69.40;;;;;;5048390;28;20029;-57
2022/11/07 07:13:47;;;;;;;14.18;9.48;;;9.80;69.50;;;;;;5042360;28;20053;-58
2022/11/07 07:16:13;;;;;;;17.50;10.63;;;9.80;69.60;;;;;;5038435;28;20531;-57
2022/11/07 07:18:39;;;;;;;15.73;10.98;;;9.90;69.70;;;;;;5033094;28;20431;-57
2022/11/07 07:21:07;;;;;;;18.13;11.60;;;9.90;69.70;;;;;;5046377;28;20067;-58
2022/11/07 07:23:34;;;;;;;19.10;10.63;;;9.90;69.60;;;;;;5041615;28;21915;-57
2022/11/07 07:26:04;;;;;;;14.18;9.93;;;10.00;69.60;;;;;;5041342;28;20032;-58
2022/11/07 07:28:31;;;;;;;15.32;9.90;;;10.10;69.50;;;;;;5031520;28;20030;-57
2022/11/07 07:31:09;;;;;;;18.17;10.00;;;10.10;69.40;;;;;;5030608;28;20071;-58
2022/11/07 07:33:35;;;;;;;15.57;10.27;;;10.20;69.50;;;;;;5031831;28;20021;-58
2022/11/07 07:36:01;;;;;;;15.70;9.38;;;10.20;69.50;;;;;;5026416;28;20940;-56
2022/11/07 07:38:27;;;;;;;14.73;9.20;;;10.20;69.40;;;;;;5035658;28;20045;-57
2022/11/07 07:40:53;;;;;;;16.52;9.75;;;10.30;69.50;;;;;;5029523;28;20025;-58
2022/11/07 07:43:18;;;;;;;13.05;8.73;;;10.30;69.40;;;;;;5035579;28;20101;-58
2022/11/07 07:45:44;;;;;;;14.80;9.00;;;10.30;69.20;;;;;;5035310;28;20036;-58
2022/11/07 07:48:10;;;;;;;11.95;7.72;;;10.30;69.30;;;;;;5031253;28;20388;-57
2022/11/07 07:50:35;;;;;;;11.32;7.55;;;10.40;69.70;;;;;;5027901;28;20033;-57
2022/11/07 07:53:01;;;;;;;15.20;10.27;;;10.40;69.20;;;;;;5026347;28;20060;-58
2022/11/07 07:55:27;;;;;;;17.17;9.93;;;10.50;69.10;;;;;;5016536;28;20148;-58
2022/11/07 07:57:52;;;;;;;15.02;10.32;;;10.50;68.90;;;;;;5014449;28;20033;-58
2022/11/07 08:00:18;;;;;;;17.10;10.98;;;10.50;69.00;;;;;;5014665;28;20042;-57
2022/11/07 08:02:44;;;;;;;15.30;9.07;;;10.60;69.00;;;;;;5013386;28;21865;-58
2022/11/07 08:05:14;;;;;;;12.82;8.93;;;10.70;69.10;;;;;;5018094;28;20048;-57
2022/11/07 08:07:50;;;;;;;12.30;7.95;;;10.80;68.90;;;;;;5024275;28;20034;-58
2022/11/07 08:10:16;;;;;;;13.10;9.02;;;10.90;68.80;;;;;;5028186;28;20514;-57
2022/11/07 08:12:47;;;;;;;15.02;9.50;;;10.90;68.60;;;;;;5029940;28;20270;-58
2022/11/07 08:15:14;;;;;;;16.17;10.25;;;11.00;68.60;;;;;;5024818;28;20244;-57
2022/11/07 08:17:40;;;;;;;21.05;12.27;;;11.00;68.30;;;;;;5023763;28;20037;-58
2022/11/07 08:20:11;;;;;;;16.40;11.18;;;11.00;68.20;;;;;;5034154;28;20037;-57
2022/11/07 08:22:37;;;;;;;24.30;14.57;;;11.10;68.30;;;;;;5025204;28;20030;-57
2022/11/07 08:25:05;;;;;;;19.30;11.40;;;11.10;67.90;;;;;;5028806;28;20029;-56
2022/11/07 08:27:31;;;;;;;21.90;11.82;;;11.10;67.90;;;;;;5021750;28;20021;-57
2022/11/07 08:29:56;;;;;;;18.52;11.15;;;11.10;67.90;;;;;;5019501;28;20461;-57
2022/11/07 08:32:23;;;;;;;21.65;12.50;;;11.10;67.90;;;;;;5018901;28;20109;-57
2022/11/07 08:34:49;;;;;;;17.40;9.32;;;11.10;67.90;;;;;;5018902;28;20029;-57
2022/11/07 08:37:14;;;;;;;12.65;8.73;;;11.10;67.70;;;;;;5010927;28;20041;-56
2022/11/07 08:39:40;;;;;;;11.13;8.05;;;11.10;67.60;;;;;;5022174;28;20106;-56
2022/11/07 08:42:05;;;;;;;11.50;7.63;;;11.10;67.40;;;;;;5009833;28;20033;-58
2022/11/07 08:44:33;;;;;;;9.80;6.55;;;11.10;67.40;;;;;;5022594;28;22743;-57
2022/11/07 08:46:59;;;;;;;11.30;7.10;;;11.10;68.20;;;;;;5019189;28;20451;-57
2022/11/07 08:49:25;;;;;;;17.42;9.90;;;11.10;67.60;;;;;;5013587;28;20033;-57
2022/11/07 08:51:51;;;;;;;15.07;10.27;;;11.10;67.50;;;;;;5015412;28;20685;-57
2022/11/07 08:54:16;;;;;;;15.30;9.73;;;11.10;67.40;;;;;;5008615;28;20041;-56
2022/11/07 08:56:42;;;;;;;18.67;11.30;;;11.10;67.40;;;;;;5010252;28;20400;-56
2022/11/07 08:59:09;;;;;;;18.83;10.60;;;11.10;67.20;;;;;;5009651;28;20076;-58
2022/11/07 09:01:35;;;;;;;20.83;11.82;;;11.10;67.10;;;;;;5011374;28;20063;-58
2022/11/07 09:04:01;;;;;;;15.80;9.70;;;11.10;67.10;;;;;;5015231;28;20041;-57
2022/11/07 09:06:26;;;;;;;15.93;9.15;;;11.10;67.30;;;;;;5008800;28;20030;-58
2022/11/07 09:08:52;;;;;;;12.85;8.30;;;11.10;67.20;;;;;;5007422;28;20677;-57
2022/11/07 09:11:18;;;;;;;11.13;6.97;;;11.10;67.20;;;;;;5015236;28;20030;-58
2022/11/07 09:13:45;;;;;;;11.00;7.60;;;11.10;67.10;;;;;;5015573;28;20044;-57
2022/11/07 09:16:11;;;;;;;10.15;6.78;;;11.10;67.00;;;;;;5016848;28;20999;-57
2022/11/07 09:18:37;;;;;;;11.40;7.32;;;11.10;67.00;;;;;;5016127;28;20033;-58
2022/11/07 09:21:03;;;;;;;9.10;6.40;;;11.00;66.90;;;;;;5009642;28;20038;-57
2022/11/07 09:23:29;;;;;;;9.50;6.50;;;11.00;66.90;;;;;;5019502;28;20047;-58
2022/11/07 09:25:59;;;;;;;13.95;8.85;;;11.00;67.00;;;;;;5013249;28;20059;-57
2022/11/07 09:28:25;;;;;;;13.25;8.40;;;11.10;67.20;;;;;;5013258;28;20051;-59
2022/11/07 09:30:55;;;;;;;12.82;7.90;;;11.10;67.20;;;;;;5017519;28;20030;-58
2022/11/07 09:33:22;;;;;;;9.75;6.65;;;11.20;67.30;;;;;;5017449;28;22943;-57
2022/11/07 09:35:48;;;;;;;10.13;7.03;;;11.20;67.00;;;;;;5014134;28;20053;-58
2022/11/07 09:38:14;;;;;;;9.57;6.65;;;11.20;67.00;;;;;;5009404;28;20033;-58
2022/11/07 09:41:09;;;;;;;8.20;5.57;;;11.30;66.90;;;;;;5011862;28;20499;-57
2022/11/07 09:43:49;;;;;;;7.57;6.03;;;11.30;66.90;;;;;;5011951;28;20036;-58
2022/11/07 09:46:58;;;;;;;9.45;6.75;;;11.40;66.90;;;;;;5004327;28;20147;-58
2022/11/07 09:49:35;;;;;;;8.45;6.35;;;11.40;66.70;;;;;;4982776;28;20116;-57
2022/11/07 09:52:11;;;;;;;9.20;6.05;;;11.40;66.60;;;;;;5004042;28;20069;-57
2022/11/07 09:54:44;;;;;;;8.43;5.90;;;11.40;66.50;;;;;;5003699;28;20145;-57
2022/11/07 09:57:17;;;;;;;10.13;6.43;;;11.40;66.60;;;;;;5005455;28;20044;-58
2022/11/07 09:59:43;;;;;;;9.93;7.03;;;11.40;66.50;;;;;;5012757;28;20048;-58
2022/11/07 10:02:20;;;;;;;8.88;6.70;;;11.40;66.50;;;;;;5012357;28;20499;-57
2022/11/07 12:13:54;;;;;;;9.40;5.78;;;9.70;66.10;;;;;;5059616;27;20463;-56
2022/11/07 12:16:39;;;;;;;12.40;8.13;;;9.60;66.40;;;;;;5044178;28;20924;-56
2022/11/07 12:19:36;;;;;;;12.70;7.60;;;9.60;67.40;;;;;;5050419;28;20131;-57
2022/11/07 12:22:01;;;;;;;18.25;9.38;;;9.70;68.30;;;;;;5051359;28;20511;-57
2022/11/07 12:24:51;;;;;;;17.17;10.07;;;9.70;69.00;;;;;;5047842;28;20025;-57
2022/11/07 12:27:16;;;;;;;15.05;9.27;;;9.80;69.20;;;;;;5042943;28;20973;-57
2022/11/07 12:30:18;;;;;;;16.48;9.38;;;9.90;69.60;;;;;;5043053;28;20032;-57
2022/11/07 12:33:35;;;;;;;10.98;6.90;;;10.00;69.80;;;;;;5041147;28;20041;-57
2022/11/07 12:36:22;;;;;;;9.10;6.65;;;10.10;69.70;;;;;;5013863;28;20029;-58
2022/11/07 12:39:23;;;;;;;10.90;7.03;;;10.20;70.00;;;;;;5044315;28;20033;-58
2022/11/07 12:42:39;;;;;;;10.70;7.65;;;10.30;69.70;;;;;;5026158;28;20041;-57
2022/11/07 12:45:31;;;;;;;12.30;7.93;;;10.30;69.50;;;;;;5041167;28;20036;-57
2022/11/07 12:48:02;;;;;;;10.88;7.28;;;10.40;69.70;;;;;;5044456;28;20033;-58
2022/11/07 12:50:34;;;;;;;;;;;10.40;69.70;;;;;;5047625;28;20033;-57
2022/11/07 12:53:28;;;;;;;8.35;5.93;;;10.40;69.20;;;;;;5043729;28;19920;-57
2022/11/07 12:56:11;;;;;;;9.82;7.40;;;10.50;69.60;;;;;;5055826;28;20135;-57
2022/11/07 12:58:39;;;;;;;9.95;6.53;;;10.50;69.40;;;;;;5048073;28;20132;-57
2022/11/07 13:01:05;;;;;;;8.98;5.88;;;10.50;69.40;;;;;;5042765;28;20035;-58
2022/11/07 13:03:54;;;;;;;7.68;5.75;;;10.50;69.50;;;;;;5048593;28;20032;-57
2022/11/07 13:06:29;;;;;;;9.35;6.13;;;10.60;69.50;;;;;;5045325;28;20029;-57
2022/11/07 13:09:21;;;;;;;8.55;6.78;;;10.60;69.60;;;;;;5039678;28;20127;-57
2022/11/07 13:11:56;;;;;;;9.40;6.45;;;10.60;69.40;;;;;;5025140;28;20045;-57
2022/11/07 13:14:29;;;;;;;9.50;6.57;;;10.70;69.30;;;;;;5038035;28;20484;-57
2022/11/07 13:17:18;;;;;;;9.65;6.07;;;10.70;69.20;;;;;;5044150;28;20752;-57
2022/11/07 13:19:57;;;;;;;8.02;5.85;;;10.70;69.10;;;;;;5050160;28;20037;-58
2022/11/07 13:22:30;;;;;;;7.85;5.38;;;10.70;69.10;;;;;;5052984;28;20156;-57
2022/11/07 13:25:23;;;;;;;7.82;6.03;;;10.70;69.10;;;;;;5031571;28;20033;-56
2022/11/07 13:27:52;;;;;;;10.00;6.55;;;10.70;68.90;;;;;;5033346;28;20029;-56
2022/11/07 13:30:20;;;;;;;10.63;7.45;;;10.70;69.00;;;;;;5041152;28;20120;-57
2022/11/07 13:32:50;;;;;;;10.23;6.60;;;10.70;68.90;;;;;;5037899;28;20391;-56
2022/11/07 13:35:21;;;;;;;9.80;6.43;;;10.80;69.00;;;;;;5038795;28;20029;-57
2022/11/07 13:37:59;;;;;;;10.70;7.40;;;10.80;68.90;;;;;;5038877;28;20061;-57
2022/11/07 13:40:51;;;;;;;10.35;7.75;;;10.80;68.90;;;;;;5035796;28;20075;-57
2022/11/07 13:43:16;;;;;;;;;;;10.70;68.70;;;;;;5036002;28;20036;-56
2022/11/07 13:45:50;;;;;;;10.00;6.72;;;10.70;68.40;;;;;;5038254;28;21052;-57
2022/11/07 13:48:21;;;;;;;9.60;6.90;;;10.70;68.80;;;;;;5029617;28;20037;-57
2022/11/07 13:51:15;;;;;;;11.43;7.55;;;10.70;68.90;;;;;;5030151;28;20028;-57
2022/11/07 13:54:08;;;;;;;13.20;7.57;;;10.70;69.00;;;;;;5027144;28;20029;-57
2022/11/07 13:57:11;;;;;;;11.07;7.80;;;10.60;69.60;;;;;;5025503;28;20033;-57
2022/11/07 13:59:51;;;;;;;11.73;8.13;;;10.60;69.00;;;;;;5017228;28;20025;-57
2022/11/07 14:02:28;;;;;;;11.52;7.85;;;10.60;69.00;;;;;;5022764;28;20039;-58
2022/11/07 14:05:00;;;;;;;9.32;6.53;;;10.50;68.70;;;;;;5019853;28;20059;-57
2022/11/07 14:07:31;;;;;;;11.38;6.97;;;10.50;68.80;;;;;;5028738;28;20024;-57
2022/11/07 14:09:59;;;;;;;8.68;6.40;;;10.50;68.80;;;;;;5030373;28;20032;-57
2022/11/07 14:12:26;;;;;;;8.68;6.60;;;10.50;68.90;;;;;;5027650;28;20041;-58
2022/11/07 14:14:54;;;;;;;10.25;7.00;;;10.50;68.80;;;;;;5031958;28;20063;-57
2022/11/07 14:17:25;;;;;;;9.20;6.05;;;10.50;68.80;;;;;;5029620;28;20060;-57
2022/11/07 14:19:50;;;;;;;8.80;6.22;;;10.50;68.80;;;;;;5027310;28;20033;-56
2022/11/07 14:22:25;;;;;;;10.88;6.80;;;10.50;68.90;;;;;;5026202;28;20056;-57
2022/11/07 14:24:56;;;;;;;9.57;6.88;;;10.50;68.80;;;;;;5029834;28;20037;-56
2022/11/07 14:27:23;;;;;;;7.97;5.45;;;10.50;68.70;;;;;;5025659;28;20436;-56
2022/11/07 14:29:51;;;;;;;8.25;5.90;;;10.50;68.70;;;;;;5031149;28;20469;-57
2022/11/07 14:32:17;;;;;;;10.55;7.45;;;10.50;68.80;;;;;;5031817;28;20168;-57
2022/11/07 14:34:45;;;;;;;11.35;7.32;;;10.50;68.80;;;;;;5029511;28;20143;-58
2022/11/07 14:37:14;;;;;;;9.60;7.10;;;10.40;68.60;;;;;;5031916;28;20144;-57
2022/11/07 14:39:40;;;;;;;9.18;6.28;;;10.40;68.60;;;;;;5021275;28;20108;-58
2022/11/07 14:42:07;;;;;;;9.43;6.80;;;10.40;68.60;;;;;;5032638;28;20056;-58
2022/11/07 14:44:44;;;;;;;10.40;7.00;;;10.40;68.80;;;;;;5027965;28;20033;-57
2022/11/07 14:47:17;;;;;;;8.82;6.32;;;10.40;68.60;;;;;;5025088;28;20489;-57
2022/11/07 14:49:46;;;;;;;9.95;6.85;;;10.40;68.80;;;;;;5026488;28;20494;-57
2022/11/07 14:52:20;;;;;;;10.38;6.63;;;10.30;68.70;;;;;;5023793;28;20361;-58
2022/11/07 14:54:49;;;;;;;9.68;6.45;;;10.30;68.70;;;;;;5027029;28;20033;-58
2022/11/07 14:57:15;;;;;;;8.85;6.55;;;10.30;68.80;;;;;;5027465;28;20037;-56
2022/11/07 14:59:41;;;;;;;8.02;6.00;;;10.30;68.70;;;;;;5010043;28;20097;-57
2022/11/07 15:02:07;;;;;;;10.07;7.10;;;10.30;68.60;;;;;;5025778;28;20052;-57
2022/11/07 15:04:39;;;;;;;8.32;6.00;;;10.30;68.50;;;;;;5028800;28;20037;-57
2022/11/07 15:07:21;;;;;;;7.75;5.28;;;10.30;68.50;;;;;;5020287;28;20528;-58
2022/11/07 15:09:47;;;;;;;9.18;6.57;;;10.30;68.50;;;;;;5013890;28;20045;-58
2022/11/07 15:12:28;;;;;;;7.53;5.45;;;10.30;68.60;;;;;;5028081;28;20076;-57
2022/11/07 15:15:17;;;;;;;8.77;5.68;;;10.20;68.60;;;;;;5020989;28;20041;-57
2022/11/07 15:17:49;;;;;;;8.93;6.07;;;10.20;68.50;;;;;;5027479;28;20044;-57